createdAt,value
2017-08-02T00:00:35.325Z,9.43
2017-08-02T00:03:03.599Z,3.23
2017-08-02T00:05:32.000Z,3.33
2017-08-02T00:08:00.280Z,4.53
2017-08-02T00:10:28.587Z,5.80
2017-08-02T00:12:57.668Z,3.60
2017-08-02T00:15:25.952Z,2.83
2017-08-02T00:17:54.267Z,3.20
2017-08-02T00:20:22.552Z,4.47
2017-08-02T00:22:50.870Z,5.83
2017-08-02T00:25:19.202Z,5.03
2017-08-02T00:27:47.528Z,4.57
2017-08-02T00:30:15.899Z,4.27
2017-08-02T00:32:44.179Z,4.70
2017-08-02T00:35:12.584Z,3.50
2017-08-02T00:37:40.868Z,3.47
2017-08-02T00:40:09.148Z,4.07
2017-08-02T00:42:37.463Z,3.47
2017-08-02T00:45:06.515Z,7.93
2017-08-02T00:47:34.794Z,4.33
2017-08-02T00:50:03.112Z,3.87
2017-08-02T00:52:31.418Z,4.03
2017-08-02T00:54:59.839Z,6.57
2017-08-02T00:57:28.894Z,4.00
2017-08-02T00:59:57.218Z,3.63
2017-08-02T01:02:25.540Z,6.10
2017-08-02T01:04:54.607Z,4.43
2017-08-02T01:07:22.923Z,2.70
2017-08-02T01:09:52.374Z,4.20
2017-08-02T01:12:20.687Z,3.93
2017-08-02T01:14:48.963Z,4.90
2017-08-02T01:17:17.265Z,3.40
2017-08-02T01:19:45.556Z,3.50
2017-08-02T01:22:14.077Z,4.80
2017-08-02T01:24:42.360Z,5.33
2017-08-02T01:27:10.635Z,3.87
2017-08-02T01:29:38.961Z,5.70
2017-08-02T01:32:08.006Z,4.00
2017-08-02T01:34:36.292Z,6.77
2017-08-02T01:37:04.608Z,6.17
2017-08-02T01:39:32.928Z,4.67
2017-08-02T01:42:01.294Z,7.00
2017-08-02T01:44:29.577Z,3.80
2017-08-02T01:46:57.984Z,4.03
2017-08-02T01:49:26.301Z,4.53
2017-08-02T01:51:55.574Z,4.60
2017-08-02T01:54:23.851Z,4.40
2017-08-02T01:56:52.135Z,3.97
2017-08-02T01:59:20.443Z,3.60
2017-08-02T02:01:48.770Z,7.10
2017-08-02T02:04:17.857Z,7.17
2017-08-02T02:06:46.168Z,4.27
2017-08-02T02:09:15.239Z,6.10
2017-08-02T02:11:43.527Z,4.20
2017-08-02T02:14:11.840Z,4.20
2017-08-02T02:16:40.160Z,5.07
2017-08-02T02:19:08.517Z,4.80
2017-08-02T02:21:36.897Z,4.90
2017-08-02T02:24:05.180Z,9.70
2017-08-02T02:26:33.486Z,4.90
2017-08-02T02:29:01.859Z,6.30
2017-08-02T02:31:30.381Z,5.30
2017-08-02T02:33:58.683Z,4.60
2017-08-02T02:36:27.040Z,4.47
2017-08-02T02:38:55.434Z,5.93
2017-08-02T02:41:23.824Z,5.57
2017-08-02T02:43:52.141Z,4.23
2017-08-02T02:46:21.212Z,4.40
2017-08-02T02:48:49.524Z,6.33
2017-08-02T02:51:18.628Z,4.97
2017-08-02T02:53:46.941Z,8.47
2017-08-02T02:56:15.215Z,9.60
2017-08-02T02:58:44.311Z,5.93
2017-08-02T03:01:12.697Z,6.53
2017-08-02T03:03:40.989Z,5.17
2017-08-02T03:06:09.364Z,5.60
2017-08-02T03:08:37.658Z,6.80
2017-08-02T03:11:06.059Z,5.47
2017-08-02T03:13:34.335Z,6.27
2017-08-02T03:16:02.642Z,4.60
2017-08-02T03:18:30.963Z,5.83
2017-08-02T03:20:59.307Z,5.97
2017-08-02T03:23:27.614Z,9.60
2017-08-02T03:25:55.919Z,5.87
2017-08-02T03:28:25.096Z,7.20
2017-08-02T03:30:53.371Z,5.27
2017-08-02T03:33:21.660Z,6.13
2017-08-02T03:35:49.963Z,4.93
2017-08-02T03:38:18.240Z,4.37
2017-08-02T03:40:46.556Z,7.63
2017-08-02T03:43:14.945Z,12.40
2017-08-02T03:45:43.331Z,7.00
2017-08-02T03:48:11.721Z,4.60
2017-08-02T03:50:40.007Z,5.33
2017-08-02T03:53:08.301Z,5.43
2017-08-02T03:55:36.621Z,7.30
2017-08-02T03:58:05.674Z,4.70
2017-08-02T04:00:33.999Z,5.20
2017-08-02T04:03:03.051Z,5.80
2017-08-02T04:05:31.336Z,7.97
2017-08-02T04:07:59.659Z,5.97
2017-08-02T04:10:27.946Z,5.20
2017-08-02T04:12:56.264Z,5.50
2017-08-02T04:15:24.579Z,4.43
2017-08-02T04:17:52.918Z,6.23
2017-08-02T04:20:21.438Z,4.63
2017-08-02T04:22:49.715Z,5.30
2017-08-02T04:25:18.028Z,6.77
2017-08-02T04:27:47.079Z,4.20
2017-08-02T04:30:15.394Z,6.47
2017-08-02T04:32:43.670Z,5.17
2017-08-02T04:35:11.956Z,8.40
2017-08-02T04:37:40.263Z,5.50
2017-08-02T04:40:08.543Z,6.67
2017-08-02T04:42:36.854Z,5.90
2017-08-02T04:45:05.140Z,9.50
2017-08-02T04:47:33.460Z,5.60
2017-08-02T04:50:02.025Z,6.67
2017-08-02T04:52:30.405Z,6.80
2017-08-02T04:54:58.674Z,9.87
2017-08-02T04:57:27.079Z,7.40
2017-08-02T04:59:55.400Z,8.37
2017-08-02T05:02:24.503Z,9.27
2017-08-02T05:04:53.561Z,7.57
2017-08-02T05:07:21.838Z,7.43
2017-08-02T05:09:50.178Z,7.00
2017-08-02T05:12:18.455Z,8.07
2017-08-02T05:14:47.762Z,7.23
2017-08-02T05:17:16.088Z,8.57
2017-08-02T05:19:45.122Z,9.03
2017-08-02T05:22:13.459Z,13.50
2017-08-02T05:24:41.740Z,10.50
2017-08-02T05:27:10.083Z,8.90
2017-08-02T05:29:38.404Z,12.70
2017-08-02T05:32:06.701Z,9.10
2017-08-02T05:34:35.020Z,10.73
2017-08-02T05:37:04.120Z,9.43
2017-08-02T05:39:32.500Z,10.50
2017-08-02T05:42:00.836Z,13.50
2017-08-02T05:44:29.136Z,11.50
2017-08-02T05:46:57.456Z,11.30
2017-08-02T05:49:25.750Z,11.50
2017-08-02T05:51:54.260Z,13.90
2017-08-02T05:54:22.643Z,11.90
2017-08-02T05:56:50.987Z,13.33
2017-08-02T05:59:19.267Z,11.20
2017-08-02T06:01:47.551Z,10.33
2017-08-02T06:04:15.912Z,11.63
2017-08-02T06:06:44.300Z,13.00
2017-08-02T06:09:12.673Z,13.33
2017-08-02T06:11:40.989Z,14.67
2017-08-02T06:14:09.316Z,12.13
2017-08-02T06:16:37.955Z,10.30
2017-08-02T06:19:06.382Z,11.60
2017-08-02T06:21:38.004Z,11.63
2017-08-02T06:24:07.268Z,11.23
2017-08-02T06:26:36.355Z,10.80
2017-08-02T06:29:04.635Z,10.83
2017-08-02T06:31:32.964Z,12.50
2017-08-02T06:34:02.065Z,12.27
2017-08-02T06:36:31.128Z,11.93
2017-08-02T06:38:59.443Z,10.93
2017-08-02T06:41:27.731Z,13.60
2017-08-02T06:43:56.124Z,11.50
2017-08-02T06:46:24.517Z,9.73
2017-08-02T06:48:52.808Z,14.33
2017-08-02T06:51:21.195Z,12.13
2017-08-02T06:53:49.508Z,9.90
2017-08-02T06:56:18.563Z,9.67
2017-08-02T06:58:46.882Z,12.20
2017-08-02T07:01:15.163Z,13.90
2017-08-02T07:03:43.478Z,12.73
2017-08-02T07:06:12.534Z,11.30
2017-08-02T07:08:40.950Z,11.40
2017-08-02T07:11:09.230Z,9.50
2017-08-02T07:13:37.517Z,10.73
2017-08-02T07:16:05.832Z,9.63
2017-08-02T07:18:34.147Z,10.93
2017-08-02T07:21:02.434Z,11.67
2017-08-02T07:23:30.765Z,8.40
2017-08-02T07:25:59.084Z,8.80
2017-08-02T07:28:27.369Z,9.27
2017-08-02T07:30:55.680Z,9.23
2017-08-02T07:33:24.744Z,12.67
2017-08-02T07:35:53.057Z,11.63
2017-08-02T07:38:21.376Z,7.73
2017-08-02T07:40:50.416Z,8.77
2017-08-02T07:43:18.699Z,9.70
2017-08-02T07:45:47.796Z,7.00
2017-08-02T07:48:16.123Z,13.53
2017-08-02T07:50:44.416Z,9.90
2017-08-02T07:53:12.715Z,7.90
2017-08-02T07:55:41.000Z,8.60
2017-08-02T07:58:09.318Z,8.80
2017-08-02T08:00:38.409Z,10.53
2017-08-02T08:03:06.689Z,8.73
2017-08-02T08:05:34.999Z,7.77
2017-08-02T08:08:04.047Z,10.17
2017-08-02T08:10:32.368Z,7.53
2017-08-02T08:13:00.651Z,6.87
2017-08-02T08:15:28.954Z,6.60
2017-08-02T08:17:57.262Z,6.50
2017-08-02T08:20:26.348Z,7.00
2017-08-02T08:22:54.668Z,8.33
2017-08-02T08:25:23.706Z,7.23
2017-08-02T08:27:51.982Z,6.17
2017-08-02T08:30:20.308Z,6.50
2017-08-02T08:32:48.618Z,7.13
2017-08-02T08:35:16.902Z,8.23
2017-08-02T08:37:45.218Z,7.43
2017-08-02T08:40:14.277Z,8.37
2017-08-02T08:42:42.582Z,8.43
2017-08-02T08:45:10.854Z,8.43
2017-08-02T08:47:39.166Z,7.10
2017-08-02T08:50:07.458Z,8.13
2017-08-02T08:52:35.768Z,8.17
2017-08-02T08:55:04.055Z,10.53
2017-08-02T08:57:33.152Z,10.47
2017-08-02T09:00:01.452Z,8.10
2017-08-02T09:02:30.638Z,8.30
2017-08-02T09:04:58.946Z,6.60
2017-08-02T09:07:28.005Z,5.90
2017-08-02T09:09:56.319Z,9.20
2017-08-02T09:12:24.603Z,7.77
2017-08-02T09:14:52.919Z,8.37
2017-08-02T09:17:21.195Z,10.73
2017-08-02T09:19:49.511Z,13.70
2017-08-02T09:22:17.844Z,10.03
2017-08-02T09:24:46.155Z,9.37
2017-08-02T09:27:14.433Z,9.50
2017-08-02T09:29:42.750Z,14.60
2017-08-02T09:32:11.065Z,9.13
2017-08-02T09:34:40.134Z,8.33
2017-08-02T09:37:08.464Z,19.27
2017-08-02T09:39:36.765Z,13.23
2017-08-02T09:42:05.580Z,11.83
2017-08-02T09:44:33.892Z,10.43
2017-08-02T09:47:02.171Z,10.07
2017-08-02T09:49:30.497Z,10.73
2017-08-02T09:51:58.783Z,14.60
2017-08-02T09:54:27.867Z,10.50
2017-08-02T09:56:56.175Z,12.77
2017-08-02T09:59:24.516Z,12.03
2017-08-02T10:01:52.832Z,10.00
2017-08-02T10:04:21.114Z,14.20
2017-08-02T10:06:49.447Z,10.93
2017-08-02T10:09:18.517Z,13.90
2017-08-02T10:11:46.827Z,9.53
2017-08-02T10:14:15.106Z,10.00
2017-08-02T10:16:43.422Z,13.03
2017-08-02T10:19:12.488Z,10.50
2017-08-02T10:21:40.762Z,9.93
2017-08-02T10:24:09.400Z,11.43
2017-08-02T10:26:37.688Z,11.50
2017-08-02T10:29:05.970Z,13.17
2017-08-02T10:31:34.288Z,13.23
2017-08-02T10:34:03.339Z,9.23
2017-08-02T10:36:31.664Z,8.33
2017-08-02T10:38:59.939Z,7.97
2017-08-02T10:41:28.261Z,8.17
2017-08-02T10:43:57.335Z,8.73
2017-08-02T10:46:25.638Z,9.40
2017-08-02T10:48:53.950Z,7.87
2017-08-02T10:51:22.995Z,8.00
2017-08-02T10:53:51.312Z,8.40
2017-08-02T10:56:19.618Z,8.00
2017-08-02T10:58:47.900Z,9.70
2017-08-02T11:01:16.207Z,7.30
2017-08-02T11:03:45.264Z,11.27
2017-08-02T11:06:13.544Z,8.97
2017-08-02T11:08:41.852Z,8.07
2017-08-02T11:11:10.175Z,8.73
2017-08-02T11:13:38.848Z,8.67
2017-08-02T11:16:07.153Z,9.23
2017-08-02T11:18:35.477Z,9.43
2017-08-02T11:21:04.515Z,8.87
2017-08-02T11:23:32.794Z,9.93
2017-08-02T11:26:01.108Z,9.07
2017-08-02T11:28:29.397Z,10.63
2017-08-02T11:30:57.702Z,10.00
2017-08-02T11:33:26.032Z,8.20
2017-08-02T11:35:54.374Z,9.43
2017-08-02T11:38:22.713Z,8.97
2017-08-02T11:40:51.070Z,9.90
2017-08-02T11:43:19.356Z,8.50
2017-08-02T11:45:47.658Z,8.57
2017-08-02T11:48:16.702Z,9.30
2017-08-02T11:50:45.032Z,10.10
2017-08-02T11:53:13.307Z,8.83
2017-08-02T11:55:41.614Z,7.90
2017-08-02T11:58:09.918Z,9.50
2017-08-02T12:00:38.980Z,10.43
2017-08-02T12:03:07.293Z,8.83
2017-08-02T12:05:35.584Z,8.80
2017-08-02T12:08:03.915Z,8.00
2017-08-02T12:10:32.236Z,7.97
2017-08-02T12:13:00.524Z,7.70
2017-08-02T12:15:28.831Z,7.70
2017-08-02T12:17:57.143Z,8.10
2017-08-02T12:20:25.432Z,7.97
2017-08-02T12:22:53.710Z,7.70
2017-08-02T12:25:22.022Z,6.93
2017-08-02T12:27:51.088Z,7.73
2017-08-02T12:30:19.371Z,6.70
2017-08-02T12:32:47.696Z,9.23
2017-08-02T12:35:15.974Z,7.13
2017-08-02T12:37:44.254Z,6.23
2017-08-02T12:40:12.567Z,6.20
2017-08-02T12:42:41.610Z,6.80
2017-08-02T12:45:09.933Z,6.43
2017-08-02T12:47:38.220Z,6.57
2017-08-02T12:50:06.540Z,6.60
2017-08-02T12:52:34.864Z,9.23
2017-08-02T12:55:03.181Z,7.70
2017-08-02T12:57:31.495Z,7.30
2017-08-02T12:59:59.776Z,7.40
2017-08-02T13:02:28.088Z,8.87
2017-08-02T13:04:56.367Z,7.57
2017-08-02T13:07:24.654Z,7.97
2017-08-02T13:09:52.963Z,12.00
2017-08-02T13:12:22.007Z,7.07
2017-08-02T13:14:50.323Z,8.27
2017-08-02T13:17:18.598Z,10.03
2017-08-02T13:19:46.924Z,8.90
2017-08-02T13:22:15.202Z,7.63
2017-08-02T13:24:43.695Z,13.10
2017-08-02T13:27:11.992Z,7.27
2017-08-02T13:29:40.263Z,7.93
2017-08-02T13:32:08.570Z,7.00
2017-08-02T13:34:36.882Z,7.13
2017-08-02T13:37:06.158Z,7.17
2017-08-02T13:39:34.468Z,6.83
2017-08-02T13:42:02.779Z,6.73
2017-08-02T13:44:31.062Z,7.37
2017-08-02T13:47:00.157Z,13.70
2017-08-02T13:49:28.431Z,8.13
2017-08-02T13:51:56.748Z,6.33
2017-08-02T13:54:25.071Z,6.20
2017-08-02T13:56:53.356Z,6.80
2017-08-02T13:59:21.672Z,6.33
2017-08-02T14:01:49.951Z,6.93
2017-08-02T14:04:18.660Z,5.90
2017-08-02T14:06:46.976Z,8.30
2017-08-02T14:09:15.260Z,6.03
2017-08-02T14:11:43.575Z,5.97
2017-08-02T14:14:12.650Z,6.37
2017-08-02T14:16:41.299Z,7.00
2017-08-02T14:19:09.726Z,6.47
2017-08-02T14:21:37.995Z,6.70
2017-08-02T14:24:06.270Z,7.23
2017-08-02T14:26:34.588Z,7.40
2017-08-02T14:29:02.872Z,7.03
2017-08-02T14:31:31.178Z,6.30
2017-08-02T14:33:59.454Z,7.63
2017-08-02T14:36:27.734Z,5.87
2017-08-02T14:38:56.053Z,6.53
2017-08-02T14:41:24.339Z,5.93
2017-08-02T14:43:52.650Z,5.87
2017-08-02T14:46:21.712Z,6.30
2017-08-02T14:48:50.027Z,5.67
2017-08-02T14:51:18.304Z,5.80
2017-08-02T14:53:46.605Z,6.33
2017-08-02T14:56:14.936Z,5.70
2017-08-02T14:58:43.210Z,6.93
2017-08-02T15:01:12.253Z,6.53
2017-08-02T15:03:40.572Z,6.17
2017-08-02T15:06:08.883Z,5.40
2017-08-02T15:08:37.177Z,5.17
2017-08-02T15:11:06.257Z,4.67
2017-08-02T15:13:34.541Z,4.60
2017-08-02T15:16:02.860Z,8.13
2017-08-02T15:18:31.943Z,7.37
2017-08-02T15:21:00.218Z,4.60
2017-08-02T15:23:28.548Z,4.57
2017-08-02T15:25:57.627Z,4.33
2017-08-02T15:28:25.944Z,7.40
2017-08-02T15:30:54.991Z,4.10
2017-08-02T15:33:23.311Z,3.63
2017-08-02T15:35:51.604Z,3.63
2017-08-02T15:38:19.889Z,4.43
2017-08-02T15:40:48.208Z,4.10
2017-08-02T15:43:17.307Z,4.40
2017-08-02T15:45:45.596Z,3.90
2017-08-02T15:48:13.869Z,4.70
2017-08-02T15:50:42.182Z,6.20
2017-08-02T15:53:11.226Z,4.40
2017-08-02T15:55:39.515Z,5.97
2017-08-02T15:58:07.836Z,4.60
2017-08-02T16:00:36.152Z,4.90
2017-08-02T16:03:04.439Z,4.53
2017-08-02T16:05:32.750Z,6.23
2017-08-02T16:08:01.075Z,4.50
2017-08-02T16:10:29.386Z,4.73
2017-08-02T16:12:59.281Z,3.87
2017-08-02T16:15:28.498Z,3.97
2017-08-02T16:17:56.827Z,3.90
2017-08-02T16:20:25.102Z,3.90
2017-08-02T16:22:53.407Z,4.93
2017-08-02T16:25:21.797Z,4.00
2017-08-02T16:27:50.086Z,3.63
2017-08-02T16:30:18.475Z,3.50
2017-08-02T16:32:47.056Z,3.60
2017-08-02T16:35:15.336Z,6.93
2017-08-02T16:37:43.852Z,3.80
2017-08-02T16:40:12.131Z,3.97
2017-08-02T16:42:40.441Z,4.20
2017-08-02T16:45:08.811Z,2.80
2017-08-02T16:47:37.091Z,2.90
2017-08-02T16:50:05.478Z,7.80
2017-08-02T16:52:33.758Z,3.40
2017-08-02T16:55:02.095Z,3.60
2017-08-02T16:57:30.476Z,4.03
2017-08-02T16:59:58.897Z,3.47
2017-08-02T17:02:27.961Z,4.03
2017-08-02T17:04:56.260Z,4.30
2017-08-02T17:07:24.673Z,3.90
2017-08-02T17:09:53.759Z,5.23
2017-08-02T17:12:22.036Z,5.13
2017-08-02T17:14:50.352Z,5.50
2017-08-02T17:17:19.404Z,4.47
2017-08-02T17:19:47.720Z,8.10
2017-08-02T17:22:15.998Z,5.27
2017-08-02T17:24:44.308Z,9.27
2017-08-02T17:27:12.586Z,6.23
2017-08-02T17:29:40.904Z,4.97
2017-08-02T17:32:09.993Z,5.27
2017-08-02T17:34:38.813Z,5.53
2017-08-02T17:37:07.908Z,7.80
2017-08-02T17:39:36.196Z,7.00
2017-08-02T17:42:04.483Z,5.30
2017-08-02T17:44:32.790Z,7.70
2017-08-02T17:47:01.884Z,6.10
2017-08-02T17:49:30.191Z,5.63
2017-08-02T17:51:59.239Z,5.83
2017-08-02T17:54:27.677Z,6.00
2017-08-02T17:56:56.756Z,10.20
2017-08-02T17:59:25.047Z,8.43
2017-08-02T18:01:53.368Z,7.97
2017-08-02T18:04:22.435Z,6.33
2017-08-02T18:06:50.749Z,7.10
2017-08-02T18:09:19.023Z,6.57
2017-08-02T18:11:47.336Z,6.40
2017-08-02T18:14:15.646Z,6.40
2017-08-02T18:16:44.691Z,6.67
2017-08-02T18:19:13.002Z,8.03
2017-08-02T18:21:41.293Z,7.17
2017-08-02T18:24:09.956Z,8.33
2017-08-02T18:26:38.241Z,8.17
2017-08-02T18:29:06.549Z,8.07
2017-08-02T18:31:34.840Z,5.67
2017-08-02T18:34:03.145Z,5.77
2017-08-02T18:36:31.469Z,6.30
2017-08-02T18:38:59.946Z,5.27
2017-08-02T18:41:28.236Z,7.40
2017-08-02T18:43:56.511Z,6.70
2017-08-02T18:46:24.831Z,8.90
2017-08-02T18:48:53.911Z,7.27
2017-08-02T18:51:22.218Z,7.87
2017-08-02T18:53:51.308Z,8.57
2017-08-02T18:56:19.616Z,8.10
2017-08-02T18:58:47.991Z,7.30
2017-08-02T19:01:16.267Z,7.33
2017-08-02T19:03:44.583Z,8.80
2017-08-02T19:06:13.662Z,8.17
2017-08-02T19:08:41.949Z,7.23
2017-08-02T19:11:10.232Z,6.27
2017-08-02T19:13:38.544Z,8.60
2017-08-02T19:16:06.825Z,9.50
2017-08-02T19:18:35.134Z,7.23
2017-08-02T19:21:03.455Z,6.93
2017-08-02T19:23:31.735Z,7.93
2017-08-02T19:26:00.059Z,14.33
2017-08-02T19:28:28.344Z,8.13
2017-08-02T19:30:56.703Z,8.37
2017-08-02T19:33:25.747Z,8.50
2017-08-02T19:35:54.035Z,8.63
2017-08-02T19:38:22.339Z,7.90
2017-08-02T19:40:50.656Z,8.43
2017-08-02T19:43:19.708Z,8.53
2017-08-02T19:45:48.037Z,8.63
2017-08-02T19:48:16.314Z,8.70
2017-08-02T19:50:44.619Z,8.63
2017-08-02T19:53:12.936Z,8.67
2017-08-02T19:55:41.989Z,9.93
2017-08-02T19:58:10.315Z,7.70
2017-08-02T20:00:38.605Z,6.53
2017-08-02T20:03:06.892Z,7.00
2017-08-02T20:05:35.199Z,6.10
2017-08-02T20:08:04.244Z,8.00
2017-08-02T20:10:32.827Z,7.00
2017-08-02T20:13:01.126Z,7.30
2017-08-02T20:15:29.476Z,7.37
2017-08-02T20:17:58.524Z,6.83
2017-08-02T20:20:26.808Z,5.70
2017-08-02T20:22:55.142Z,6.27
2017-08-02T20:25:23.418Z,6.97
2017-08-02T20:27:51.699Z,6.80
2017-08-02T20:30:20.016Z,5.87
2017-08-02T20:32:48.299Z,6.23
2017-08-02T20:35:16.612Z,6.73
2017-08-02T20:37:45.696Z,7.63
2017-08-02T20:40:14.043Z,8.20
2017-08-02T20:42:42.328Z,9.13
2017-08-02T20:45:10.633Z,6.80
2017-08-02T20:47:38.925Z,6.47
2017-08-02T20:50:07.239Z,10.80
2017-08-02T20:52:35.567Z,6.93
2017-08-02T20:55:03.852Z,7.00
2017-08-02T20:57:32.176Z,5.57
2017-08-02T21:00:00.488Z,6.53
2017-08-02T21:02:28.776Z,7.83
2017-08-02T21:04:57.059Z,7.10
2017-08-02T21:07:25.370Z,6.53
2017-08-02T21:09:53.668Z,7.03
2017-08-02T21:12:22.748Z,7.43
2017-08-02T21:14:51.041Z,6.63
2017-08-02T21:17:19.361Z,10.13
2017-08-02T21:19:48.417Z,8.80
2017-08-02T21:22:16.778Z,6.77
2017-08-02T21:24:45.056Z,7.37
2017-08-02T21:27:13.334Z,6.80
2017-08-02T21:29:41.666Z,7.80
2017-08-02T21:32:09.975Z,6.90
2017-08-02T21:34:38.279Z,7.20
2017-08-02T21:37:06.569Z,7.40
2017-08-02T21:39:35.064Z,9.63
2017-08-02T21:42:03.357Z,7.57
2017-08-02T21:44:31.630Z,7.50
2017-08-02T21:47:00.064Z,8.57
2017-08-02T21:49:29.110Z,12.13
2017-08-02T21:51:57.390Z,8.80
2017-08-02T21:54:25.915Z,9.50
2017-08-02T21:56:54.205Z,8.60
2017-08-02T21:59:22.479Z,9.63
2017-08-02T22:01:51.082Z,10.50
2017-08-02T22:04:19.431Z,8.70
2017-08-02T22:06:47.766Z,10.60
2017-08-02T22:09:16.066Z,8.73
2017-08-02T22:11:44.374Z,10.43
2017-08-02T22:14:13.428Z,9.63
2017-08-02T22:16:41.716Z,7.87
2017-08-02T22:19:10.036Z,11.50
2017-08-02T22:21:38.318Z,8.20
2017-08-02T22:24:06.601Z,8.97
2017-08-02T22:26:34.916Z,9.93
2017-08-02T22:29:03.201Z,9.93
2017-08-02T22:31:31.529Z,10.73
2017-08-02T22:33:59.848Z,9.03
2017-08-02T22:36:28.418Z,10.87
2017-08-02T22:38:56.752Z,10.40
2017-08-02T22:41:25.063Z,9.33
2017-08-02T22:43:54.148Z,9.07
2017-08-02T22:46:22.445Z,10.30
2017-08-02T22:48:50.764Z,9.40
2017-08-02T22:51:19.834Z,12.57
2017-08-02T22:53:48.124Z,9.97
2017-08-02T22:56:16.442Z,9.53
2017-08-02T22:58:45.483Z,11.70
2017-08-02T23:01:13.800Z,10.80
2017-08-02T23:03:42.087Z,11.47
2017-08-02T23:06:10.424Z,9.80
2017-08-02T23:08:39.498Z,11.90
2017-08-02T23:11:07.821Z,9.73
2017-08-02T23:13:36.905Z,12.97
2017-08-02T23:16:05.283Z,12.10
2017-08-02T23:18:33.594Z,11.13
2017-08-02T23:21:02.674Z,12.60
2017-08-02T23:23:30.972Z,11.77
2017-08-02T23:25:59.282Z,10.47
2017-08-02T23:28:28.373Z,9.67
2017-08-02T23:30:56.687Z,10.97
2017-08-02T23:33:25.748Z,12.17
2017-08-02T23:35:54.072Z,10.53
2017-08-02T23:38:23.165Z,10.20
2017-08-02T23:40:51.459Z,12.70
2017-08-02T23:43:19.774Z,16.73
2017-08-02T23:45:48.836Z,11.30
2017-08-02T23:48:17.163Z,10.93
2017-08-02T23:50:46.228Z,11.93
2017-08-02T23:53:14.525Z,13.40
2017-08-02T23:55:42.842Z,12.20
2017-08-02T23:58:11.895Z,10.13
